createdAt,value
2023-03-15T00:02:04.646Z,77.67
2023-03-15T00:04:42.000Z,77.44
2023-03-15T00:07:18.455Z,77.10
2023-03-15T00:09:55.153Z,76.89
2023-03-15T00:12:32.135Z,76.86
2023-03-15T00:15:11.042Z,76.72
2023-03-15T00:17:47.464Z,76.67
2023-03-15T00:20:24.346Z,76.55
2023-03-15T00:23:01.118Z,76.36
2023-03-15T00:25:37.606Z,76.23
2023-03-15T00:28:14.101Z,76.04
2023-03-15T00:30:50.603Z,75.93
2023-03-15T00:33:26.991Z,75.85
2023-03-15T00:36:06.560Z,75.72
2023-03-15T00:38:45.243Z,75.71
2023-03-15T00:41:23.826Z,75.66
2023-03-15T00:44:00.133Z,75.65
2023-03-15T00:46:36.635Z,75.69
2023-03-15T00:49:13.064Z,75.68
2023-03-15T00:51:49.451Z,75.69
2023-03-15T00:54:25.696Z,75.75
2023-03-15T00:57:02.480Z,75.76
2023-03-15T00:59:39.185Z,75.85
2023-03-15T01:02:18.010Z,76.04
2023-03-15T01:04:55.063Z,76.27
2023-03-15T01:07:34.343Z,76.52
2023-03-15T01:10:15.195Z,76.71
2023-03-15T01:12:51.729Z,76.97
2023-03-15T01:15:28.318Z,77.09
2023-03-15T01:18:04.749Z,77.27
2023-03-15T01:20:43.870Z,77.35
2023-03-15T01:23:21.422Z,77.45
2023-03-15T01:26:00.619Z,77.53
2023-03-15T01:28:37.940Z,77.65
2023-03-15T01:31:21.887Z,77.73
2023-03-15T01:33:59.740Z,77.74
2023-03-15T01:36:39.162Z,77.69
2023-03-15T01:39:15.542Z,77.64
2023-03-15T01:41:53.874Z,77.61
2023-03-15T01:44:54.920Z,77.50
2023-03-15T01:47:32.906Z,77.44
2023-03-15T01:50:14.236Z,77.40
2023-03-15T01:52:51.169Z,77.28
2023-03-15T01:55:29.150Z,77.26
2023-03-15T01:58:17.116Z,77.10
2023-03-15T02:00:55.643Z,76.90
2023-03-15T02:03:38.954Z,76.78
2023-03-15T02:06:18.498Z,76.58
2023-03-15T02:09:05.867Z,76.38
2023-03-15T02:11:44.750Z,76.16
2023-03-15T02:14:22.696Z,76.01
2023-03-15T02:17:00.110Z,75.93
2023-03-15T02:19:57.221Z,75.81
2023-03-15T02:22:48.646Z,75.70
2023-03-15T02:25:39.747Z,75.65
2023-03-15T02:28:20.162Z,75.60
2023-03-15T02:30:56.864Z,75.47
2023-03-15T02:33:40.183Z,75.22
2023-03-15T02:36:24.809Z,75.12
2023-03-15T02:39:01.988Z,75.05
2023-03-15T02:41:43.820Z,74.92
2023-03-15T02:44:22.848Z,74.87
2023-03-15T02:47:07.282Z,74.88
2023-03-15T02:49:50.797Z,74.88
2023-03-15T02:52:27.810Z,74.93
2023-03-15T02:55:04.585Z,74.95
2023-03-15T02:57:41.142Z,75.02
2023-03-15T03:00:22.428Z,75.06
2023-03-15T03:02:59.346Z,75.10
2023-03-15T03:05:35.721Z,75.18
2023-03-15T03:08:12.673Z,75.21
2023-03-15T03:10:50.050Z,75.17
2023-03-15T03:13:26.726Z,75.19
2023-03-15T03:16:03.679Z,75.23
2023-03-15T03:18:42.284Z,75.23
2023-03-15T03:21:18.907Z,75.32
2023-03-15T03:23:55.772Z,75.34
2023-03-15T03:26:32.889Z,75.39
2023-03-15T03:29:09.728Z,75.46
2023-03-15T03:31:47.394Z,75.49
2023-03-15T03:34:24.257Z,75.52
2023-03-15T03:37:00.762Z,75.55
2023-03-15T03:39:52.453Z,75.59
2023-03-15T03:42:29.743Z,75.67
2023-03-15T03:45:07.873Z,75.74
2023-03-15T03:47:48.236Z,75.75
2023-03-15T03:50:24.864Z,75.70
2023-03-15T03:53:01.415Z,75.71
2023-03-15T03:55:42.875Z,75.72
2023-03-15T03:58:19.596Z,75.82
2023-03-15T04:01:00.520Z,76.00
2023-03-15T04:03:37.598Z,75.95
2023-03-15T04:06:23.772Z,76.07
2023-03-15T04:09:00.278Z,76.10
2023-03-15T04:11:48.694Z,76.12
2023-03-15T04:14:26.280Z,76.09
2023-03-15T04:17:04.080Z,76.14
2023-03-15T04:19:41.246Z,76.08
2023-03-15T04:22:19.081Z,76.06
2023-03-15T04:25:14.706Z,76.11
2023-03-15T04:27:58.988Z,76.05
2023-03-15T04:30:59.099Z,75.96
2023-03-15T04:33:55.443Z,75.89
2023-03-15T04:37:32.262Z,75.75
2023-03-15T04:40:26.642Z,75.66
2023-03-15T04:43:22.861Z,75.60
2023-03-15T04:46:18.522Z,75.58
2023-03-15T04:49:10.071Z,75.55
2023-03-15T04:52:05.532Z,75.51
2023-03-15T04:54:58.518Z,75.46
2023-03-15T04:57:56.802Z,75.49
2023-03-15T05:00:48.514Z,75.47
2023-03-15T05:03:43.537Z,75.38
2023-03-15T05:06:26.236Z,75.33
2023-03-15T05:09:05.658Z,75.31
2023-03-15T05:12:02.502Z,75.24
2023-03-15T05:15:26.117Z,75.20
2023-03-15T05:18:52.245Z,75.22
2023-03-15T05:21:52.018Z,75.18
2023-03-15T05:25:11.482Z,75.09
2023-03-15T05:28:29.827Z,74.92
2023-03-15T05:31:58.235Z,74.81
2023-03-15T05:35:02.461Z,74.72
2023-03-15T05:37:51.112Z,74.65
2023-03-15T05:41:12.329Z,74.50
2023-03-15T05:44:09.675Z,74.32
2023-03-15T05:47:26.845Z,74.23
2023-03-15T05:50:49.981Z,74.09
2023-03-15T05:54:10.282Z,73.94
2023-03-15T05:56:58.869Z,73.78
2023-03-15T06:00:28.433Z,73.66
2023-03-15T06:03:06.043Z,73.43
2023-03-15T06:05:56.191Z,73.33
2023-03-15T06:08:40.239Z,73.20
2023-03-15T06:11:16.651Z,73.22
2023-03-15T06:13:53.247Z,73.14
2023-03-15T06:17:14.131Z,73.00
2023-03-15T06:19:52.827Z,72.82
2023-03-15T06:22:30.108Z,72.68
2023-03-15T06:25:11.748Z,72.58
2023-03-15T06:27:49.111Z,72.34
2023-03-15T06:30:27.814Z,72.20
2023-03-15T06:33:06.521Z,71.90
2023-03-15T06:35:43.204Z,71.89
2023-03-15T06:38:19.709Z,71.89
2023-03-15T06:40:58.589Z,71.80
2023-03-15T06:43:35.181Z,71.63
2023-03-15T06:46:11.790Z,71.70
2023-03-15T06:48:48.204Z,71.62
2023-03-15T06:51:25.177Z,71.55
2023-03-15T06:54:01.968Z,71.51
2023-03-15T06:56:38.733Z,71.43
2023-03-15T06:59:15.057Z,71.29
2023-03-15T07:01:51.414Z,71.16
2023-03-15T07:04:30.227Z,70.90
2023-03-15T07:07:07.299Z,70.63
2023-03-15T07:09:44.191Z,70.71
2023-03-15T07:12:21.142Z,70.71
2023-03-15T07:14:57.492Z,70.70
2023-03-15T07:17:33.754Z,70.64
2023-03-15T07:20:13.896Z,70.50
2023-03-15T07:22:50.452Z,70.45
2023-03-15T07:25:26.802Z,70.29
2023-03-15T07:28:03.315Z,70.29
2023-03-15T07:30:39.727Z,70.15
2023-03-15T07:33:16.225Z,70.11
2023-03-15T07:35:53.608Z,69.97
2023-03-15T07:38:31.486Z,69.84
2023-03-15T07:41:10.382Z,69.72
2023-03-15T07:43:47.649Z,69.52
2023-03-15T07:46:26.917Z,69.20
2023-03-15T07:49:03.320Z,69.10
2023-03-15T07:51:40.022Z,68.99
2023-03-15T07:54:16.513Z,68.78
2023-03-15T07:56:52.963Z,68.61
2023-03-15T07:59:30.645Z,68.41
2023-03-15T08:02:07.583Z,68.14
2023-03-15T08:04:44.926Z,67.92
2023-03-15T08:07:21.568Z,67.51
2023-03-15T08:09:59.264Z,67.04
2023-03-15T08:12:35.569Z,66.92
2023-03-15T08:15:15.564Z,66.65
2023-03-15T08:17:53.199Z,66.46
2023-03-15T08:20:30.196Z,66.19
2023-03-15T08:23:06.823Z,65.92
2023-03-15T08:25:43.726Z,65.69
2023-03-15T08:28:20.913Z,65.49
2023-03-15T08:30:57.494Z,65.41
2023-03-15T08:33:33.747Z,65.30
2023-03-15T08:36:11.335Z,65.10
2023-03-15T08:38:47.703Z,64.93
2023-03-15T08:41:24.076Z,64.65
2023-03-15T08:44:00.527Z,64.37
2023-03-15T08:46:37.026Z,64.18
2023-03-15T08:49:13.258Z,63.87
2023-03-15T08:51:49.537Z,63.55
2023-03-15T08:54:27.572Z,63.23
2023-03-15T08:57:04.672Z,63.25
2023-03-15T08:59:41.377Z,62.82
2023-03-15T09:02:18.738Z,62.63
2023-03-15T09:04:55.383Z,61.78
2023-03-15T09:07:32.891Z,61.06
2023-03-15T09:10:13.327Z,60.68
2023-03-15T09:12:54.090Z,60.59
2023-03-15T09:15:30.989Z,60.36
2023-03-15T09:18:08.439Z,60.19
2023-03-15T09:20:45.138Z,59.83
2023-03-15T09:23:21.688Z,59.21
2023-03-15T09:25:58.356Z,58.91
2023-03-15T09:28:35.038Z,58.83
2023-03-15T09:31:12.553Z,58.49
2023-03-15T09:33:49.847Z,58.45
2023-03-15T09:36:26.700Z,58.37
2023-03-15T09:39:03.706Z,57.92
2023-03-15T09:41:52.238Z,57.73
2023-03-15T09:44:52.620Z,57.73
2023-03-15T09:47:48.332Z,57.67
2023-03-15T09:50:32.907Z,57.11
2023-03-15T09:53:20.227Z,56.90
2023-03-15T09:56:26.967Z,56.49
2023-03-15T09:59:06.732Z,56.45
2023-03-15T10:01:45.603Z,56.36
2023-03-15T10:04:31.619Z,56.20
2023-03-15T10:07:13.367Z,55.86
2023-03-15T10:09:49.077Z,55.65
2023-03-15T10:12:40.856Z,55.91
2023-03-15T10:15:45.823Z,56.13
2023-03-15T10:18:51.247Z,56.36
2023-03-15T10:21:49.052Z,56.21
2023-03-15T10:24:37.057Z,55.96
2023-03-15T10:27:27.389Z,55.69
2023-03-15T10:30:14.581Z,55.23
2023-03-15T10:33:00.483Z,55.26
2023-03-15T10:35:37.925Z,55.35
2023-03-15T10:38:23.890Z,54.94
2023-03-15T10:41:02.733Z,54.49
2023-03-15T10:43:41.655Z,54.11
2023-03-15T10:46:27.008Z,53.97
2023-03-15T10:49:13.278Z,53.88
2023-03-15T10:51:51.345Z,54.20
2023-03-15T10:54:29.809Z,54.31
2023-03-15T10:57:14.799Z,54.14
2023-03-15T11:00:09.529Z,54.27
2023-03-15T11:03:02.626Z,54.04
2023-03-15T11:05:50.704Z,53.41
2023-03-15T11:08:40.230Z,53.44
2023-03-15T11:11:16.705Z,53.20
2023-03-15T11:14:07.857Z,53.08
2023-03-15T11:16:47.783Z,52.39
2023-03-15T11:19:28.114Z,52.26
2023-03-15T11:22:06.186Z,52.00
2023-03-15T11:24:43.151Z,51.51
2023-03-15T11:27:26.019Z,51.35
2023-03-15T11:30:05.608Z,51.19
2023-03-15T11:32:49.435Z,51.16
2023-03-15T11:35:33.753Z,51.25
2023-03-15T11:38:23.277Z,51.42
2023-03-15T11:41:03.918Z,51.50
2023-03-15T11:44:01.267Z,51.41
2023-03-15T11:46:48.785Z,51.26
2023-03-15T11:49:36.745Z,51.50
2023-03-15T11:52:16.721Z,51.20
2023-03-15T11:54:55.749Z,50.83
2023-03-15T11:57:51.184Z,51.24
2023-03-15T12:01:02.213Z,51.10
2023-03-15T12:03:46.598Z,50.91
2023-03-15T12:06:43.208Z,50.85
2023-03-15T12:09:56.491Z,50.87
2023-03-15T12:12:48.639Z,50.94
2023-03-15T12:15:53.423Z,51.02
2023-03-15T12:18:47.745Z,51.04
2023-03-15T12:21:35.348Z,50.96
2023-03-15T12:24:25.383Z,50.58
2023-03-15T12:27:16.487Z,50.22
2023-03-15T12:30:02.915Z,50.02
2023-03-15T12:32:51.199Z,49.43
2023-03-15T12:35:34.283Z,49.25
2023-03-15T12:38:20.824Z,49.45
2023-03-15T12:41:00.202Z,49.62
2023-03-15T12:43:46.717Z,49.57
2023-03-15T12:47:04.586Z,48.85
2023-03-15T12:49:49.193Z,49.30
2023-03-15T12:52:53.707Z,48.87
2023-03-15T12:55:35.775Z,48.71
2023-03-15T12:58:14.161Z,48.59
2023-03-15T13:00:55.577Z,48.88
2023-03-15T13:03:35.435Z,48.59
2023-03-15T13:06:39.634Z,48.99
2023-03-15T13:09:46.700Z,49.23
2023-03-15T13:12:30.518Z,49.01
2023-03-15T13:15:18.688Z,48.79
2023-03-15T13:18:04.608Z,48.71
2023-03-15T13:21:01.215Z,48.88
2023-03-15T13:23:42.742Z,48.97
2023-03-15T13:26:55.849Z,49.00
2023-03-15T13:29:36.495Z,49.26
2023-03-15T13:32:23.073Z,48.91
2023-03-15T13:35:02.339Z,48.95
2023-03-15T13:37:45.092Z,48.72
2023-03-15T13:40:22.172Z,48.95
2023-03-15T13:43:04.601Z,48.84
2023-03-15T13:45:46.679Z,49.16
2023-03-15T13:48:24.379Z,49.23
2023-03-15T13:51:07.996Z,49.27
2023-03-15T13:53:49.849Z,49.29
2023-03-15T13:56:49.390Z,49.38
2023-03-15T13:59:35.785Z,49.53
2023-03-15T14:02:19.300Z,48.72
2023-03-15T14:05:05.337Z,48.63
2023-03-15T14:07:45.679Z,48.76
2023-03-15T14:10:38.846Z,48.63
2023-03-15T14:13:32.211Z,48.76
2023-03-15T14:16:18.075Z,49.02
2023-03-15T14:18:55.622Z,49.05
2023-03-15T14:21:38.574Z,49.16
2023-03-15T14:24:26.846Z,49.33
2023-03-15T14:27:10.485Z,49.46
2023-03-15T14:29:55.593Z,49.27
2023-03-15T14:32:37.664Z,49.21
2023-03-15T14:35:26.276Z,49.32
2023-03-15T14:38:17.735Z,49.42
2023-03-15T14:40:55.893Z,49.28
2023-03-15T14:43:32.216Z,49.34
2023-03-15T14:46:11.766Z,49.35
2023-03-15T14:48:48.545Z,49.48
2023-03-15T14:51:27.000Z,49.35
2023-03-15T14:54:04.287Z,49.60
2023-03-15T14:56:42.669Z,49.68
2023-03-15T14:59:20.782Z,49.84
2023-03-15T15:02:01.200Z,49.84
2023-03-15T15:04:39.706Z,49.99
2023-03-15T15:07:20.655Z,49.85
2023-03-15T15:09:57.451Z,50.06
2023-03-15T15:12:33.816Z,50.00
2023-03-15T15:15:21.656Z,50.03
2023-03-15T15:17:58.633Z,50.23
2023-03-15T15:20:35.090Z,50.29
2023-03-15T15:23:16.840Z,50.50
2023-03-15T15:25:55.319Z,50.61
2023-03-15T15:28:37.209Z,50.76
2023-03-15T15:31:19.816Z,50.96
2023-03-15T15:33:57.654Z,51.22
2023-03-15T15:36:39.728Z,51.51
2023-03-15T15:39:27.788Z,51.67
2023-03-15T15:42:04.003Z,51.85
2023-03-15T15:44:40.455Z,52.02
2023-03-15T15:47:17.350Z,52.17
2023-03-15T15:49:54.335Z,52.30
2023-03-15T15:52:31.300Z,52.34
2023-03-15T15:55:13.957Z,52.44
2023-03-15T15:57:53.982Z,52.57
2023-03-15T16:00:32.550Z,52.75
2023-03-15T16:03:16.788Z,52.87
2023-03-15T16:05:53.275Z,53.02
2023-03-15T16:08:31.513Z,53.33
2023-03-15T16:11:08.875Z,53.47
2023-03-15T16:13:46.698Z,53.59
2023-03-15T16:16:24.355Z,53.76
2023-03-15T16:19:00.943Z,53.91
2023-03-15T16:21:43.368Z,54.19
2023-03-15T16:24:24.370Z,54.23
2023-03-15T16:27:06.058Z,54.35
2023-03-15T16:29:47.570Z,54.61
2023-03-15T16:32:43.082Z,54.73
2023-03-15T16:35:20.992Z,54.94
2023-03-15T16:38:01.888Z,55.25
2023-03-15T16:40:43.105Z,55.36
2023-03-15T16:43:20.166Z,55.40
2023-03-15T16:45:56.568Z,55.55
2023-03-15T16:48:33.180Z,55.74
2023-03-15T16:51:14.553Z,55.95
2023-03-15T16:53:52.691Z,56.12
2023-03-15T16:56:36.949Z,56.29
2023-03-15T16:59:17.020Z,56.46
2023-03-15T17:01:53.749Z,56.74
2023-03-15T17:04:30.285Z,57.00
2023-03-15T17:07:07.627Z,57.11
2023-03-15T17:09:44.574Z,57.18
2023-03-15T17:12:28.001Z,57.41
2023-03-15T17:15:06.226Z,57.72
2023-03-15T17:17:44.381Z,58.11
2023-03-15T17:20:27.304Z,58.26
2023-03-15T17:23:07.033Z,58.53
2023-03-15T17:25:44.008Z,58.78
2023-03-15T17:28:21.497Z,59.05
2023-03-15T17:31:19.977Z,59.29
2023-03-15T17:33:55.237Z,59.51
2023-03-15T17:36:37.761Z,59.87
2023-03-15T17:39:18.301Z,60.12
2023-03-15T17:41:55.297Z,60.31
2023-03-15T17:44:31.692Z,60.62
2023-03-15T17:47:10.901Z,61.05
2023-03-15T17:49:48.832Z,61.30
2023-03-15T17:52:25.587Z,61.52
2023-03-15T17:55:01.995Z,61.94
2023-03-15T17:57:42.941Z,62.26
2023-03-15T18:00:28.865Z,62.39
2023-03-15T18:03:06.310Z,62.76
2023-03-15T18:05:43.665Z,62.98
2023-03-15T18:08:25.028Z,63.32
2023-03-15T18:11:02.113Z,63.73
2023-03-15T18:13:39.207Z,63.29
2023-03-15T18:16:17.423Z,63.80
2023-03-15T18:18:54.995Z,64.16
2023-03-15T18:21:33.163Z,64.45
2023-03-15T18:24:15.363Z,64.72
2023-03-15T18:26:52.938Z,65.05
2023-03-15T18:29:29.665Z,65.40
2023-03-15T18:32:07.257Z,65.78
2023-03-15T18:34:44.364Z,66.06
2023-03-15T18:37:21.484Z,66.24
2023-03-15T18:39:58.429Z,66.44
2023-03-15T18:42:34.894Z,66.59
2023-03-15T18:45:21.348Z,66.73
2023-03-15T18:48:00.029Z,66.88
2023-03-15T18:50:37.490Z,67.13
2023-03-15T18:53:14.879Z,67.44
2023-03-15T18:55:52.299Z,67.66
2023-03-15T18:58:31.874Z,67.78
2023-03-15T19:01:08.765Z,67.87
2023-03-15T19:03:45.872Z,67.92
2023-03-15T19:06:23.831Z,68.02
2023-03-15T19:09:01.137Z,68.01
2023-03-15T19:11:41.927Z,68.07
2023-03-15T19:14:18.346Z,68.07
2023-03-15T19:16:55.232Z,68.11
2023-03-15T19:19:31.703Z,68.13
2023-03-15T19:22:08.232Z,68.11
2023-03-15T19:24:44.887Z,68.13
2023-03-15T19:27:21.350Z,68.16
2023-03-15T19:29:58.228Z,68.24
2023-03-15T19:32:37.619Z,68.35
2023-03-15T19:35:15.429Z,68.52
2023-03-15T19:37:52.852Z,68.56
2023-03-15T19:40:29.810Z,68.58
2023-03-15T19:43:06.486Z,68.63
2023-03-15T19:45:43.192Z,68.59
2023-03-15T19:48:21.328Z,68.48
2023-03-15T19:50:58.596Z,68.43
2023-03-15T19:53:37.209Z,68.34
2023-03-15T19:56:17.282Z,68.27
2023-03-15T19:58:56.468Z,68.29
2023-03-15T20:01:33.836Z,68.28
2023-03-15T20:04:11.179Z,68.29
2023-03-15T20:06:48.034Z,68.31
2023-03-15T20:09:24.981Z,68.32
2023-03-15T20:12:01.854Z,68.34
2023-03-15T20:14:41.053Z,68.34
2023-03-15T20:17:20.565Z,68.37
2023-03-15T20:19:58.258Z,68.48
2023-03-15T20:22:35.303Z,68.58
2023-03-15T20:25:14.471Z,68.71
2023-03-15T20:27:51.853Z,68.88
2023-03-15T20:30:29.204Z,68.99
2023-03-15T20:33:06.076Z,69.09
2023-03-15T20:35:43.106Z,69.17
2023-03-15T20:38:22.955Z,69.34
2023-03-15T20:41:01.836Z,69.46
2023-03-15T20:43:38.842Z,69.55
2023-03-15T20:46:17.032Z,69.64
2023-03-15T20:48:54.250Z,69.72
2023-03-15T20:51:30.968Z,69.82
2023-03-15T20:54:07.483Z,69.86
2023-03-15T20:56:45.598Z,70.00
2023-03-15T20:59:22.739Z,70.16
2023-03-15T21:02:01.005Z,70.23
2023-03-15T21:04:37.986Z,70.31
2023-03-15T21:07:14.751Z,70.38
2023-03-15T21:09:51.136Z,70.44
2023-03-15T21:12:27.647Z,70.49
2023-03-15T21:15:04.688Z,70.52
2023-03-15T21:17:41.316Z,70.55
2023-03-15T21:20:18.612Z,70.59
2023-03-15T21:22:54.980Z,70.70
2023-03-15T21:25:32.396Z,70.76
2023-03-15T21:28:09.122Z,70.82
2023-03-15T21:30:46.241Z,70.82
2023-03-15T21:33:23.307Z,70.84
2023-03-15T21:36:00.584Z,70.88
2023-03-15T21:38:38.906Z,70.94
2023-03-15T21:41:15.667Z,70.98
2023-03-15T21:43:52.034Z,71.06
2023-03-15T21:46:28.333Z,71.11
2023-03-15T21:49:05.494Z,71.19
2023-03-15T21:51:46.001Z,71.25
2023-03-15T21:54:22.517Z,71.36
2023-03-15T21:56:58.984Z,71.44
2023-03-15T21:59:35.761Z,71.46
2023-03-15T22:02:14.346Z,71.54
2023-03-15T22:04:52.083Z,71.59
2023-03-15T22:07:28.549Z,71.63
2023-03-15T22:10:05.859Z,71.65
2023-03-15T22:12:43.451Z,71.68
2023-03-15T22:15:20.111Z,71.72
2023-03-15T22:17:56.464Z,71.79
2023-03-15T22:20:33.545Z,71.84
2023-03-15T22:23:11.266Z,71.84
2023-03-15T22:25:47.730Z,71.91
2023-03-15T22:28:25.364Z,71.95
2023-03-15T22:31:01.924Z,72.00
2023-03-15T22:33:38.766Z,72.05
2023-03-15T22:36:17.349Z,72.13
2023-03-15T22:38:54.260Z,72.11
2023-03-15T22:41:30.827Z,72.24
2023-03-15T22:44:07.465Z,72.37
2023-03-15T22:46:44.114Z,72.44
2023-03-15T22:49:26.440Z,72.50
2023-03-15T22:52:02.695Z,72.54
2023-03-15T22:54:39.007Z,72.57
2023-03-15T22:57:15.549Z,72.57
2023-03-15T22:59:52.248Z,72.42
2023-03-15T23:02:29.728Z,72.52
2023-03-15T23:05:06.863Z,72.27
2023-03-15T23:07:44.007Z,71.82
2023-03-15T23:10:21.137Z,71.52
2023-03-15T23:12:57.406Z,71.30
2023-03-15T23:15:34.230Z,71.54
2023-03-15T23:18:13.898Z,71.43
2023-03-15T23:20:50.341Z,71.81
2023-03-15T23:23:27.750Z,71.85
2023-03-15T23:26:04.335Z,71.41
2023-03-15T23:28:40.871Z,71.69
2023-03-15T23:31:17.197Z,71.97
2023-03-15T23:33:53.861Z,72.22
2023-03-15T23:36:30.173Z,72.38
2023-03-15T23:39:06.951Z,72.44
2023-03-15T23:41:45.672Z,72.46
2023-03-15T23:44:22.689Z,72.64
2023-03-15T23:46:59.022Z,72.78
2023-03-15T23:49:38.527Z,72.67
2023-03-15T23:52:15.844Z,72.79
2023-03-15T23:54:53.971Z,72.85
2023-03-15T23:57:30.832Z,72.26
